sensor_id;sensor_type;location;lat;lon;timestamp;P1;durP1;ratioP1;P2;durP2;ratioP2
20207;SDS011;10263;48.716;8.760;2023-08-17T00:00:50;10.60;;;8.95;;
20207;SDS011;10263;48.716;8.760;2023-08-17T00:03:17;9.82;;;7.78;;
20207;SDS011;10263;48.716;8.760;2023-08-17T00:05:45;8.35;;;7.57;;
20207;SDS011;10263;48.716;8.760;2023-08-17T00:08:12;12.80;;;7.55;;
20207;SDS011;10263;48.716;8.760;2023-08-17T00:10:39;8.40;;;7.15;;
20207;SDS011;10263;48.716;8.760;2023-08-17T00:13:06;8.10;;;7.30;;
20207;SDS011;10263;48.716;8.760;2023-08-17T00:15:32;8.48;;;7.68;;
20207;SDS011;10263;48.716;8.760;2023-08-17T00:17:59;8.40;;;7.55;;
20207;SDS011;10263;48.716;8.760;2023-08-17T00:20:26;9.05;;;7.07;;
20207;SDS011;10263;48.716;8.760;2023-08-17T00:22:54;10.60;;;7.97;;
20207;SDS011;10263;48.716;8.760;2023-08-17T00:25:21;8.52;;;7.72;;
20207;SDS011;10263;48.716;8.760;2023-08-17T00:27:48;9.60;;;8.40;;
20207;SDS011;10263;48.716;8.760;2023-08-17T00:30:16;11.55;;;8.98;;
20207;SDS011;10263;48.716;8.760;2023-08-17T00:32:43;9.02;;;8.13;;
20207;SDS011;10263;48.716;8.760;2023-08-17T00:35:10;9.63;;;8.60;;
20207;SDS011;10263;48.716;8.760;2023-08-17T00:37:37;8.82;;;7.85;;
20207;SDS011;10263;48.716;8.760;2023-08-17T00:40:06;9.07;;;8.25;;
20207;SDS011;10263;48.716;8.760;2023-08-17T00:42:34;10.00;;;7.90;;
20207;SDS011;10263;48.716;8.760;2023-08-17T00:45:00;9.70;;;7.95;;
20207;SDS011;10263;48.716;8.760;2023-08-17T00:47:27;8.02;;;7.32;;
20207;SDS011;10263;48.716;8.760;2023-08-17T00:49:56;7.22;;;6.50;;
20207;SDS011;10263;48.716;8.760;2023-08-17T00:52:24;7.10;;;6.50;;
20207;SDS011;10263;48.716;8.760;2023-08-17T00:54:50;7.82;;;6.45;;
20207;SDS011;10263;48.716;8.760;2023-08-17T00:57:19;7.78;;;7.00;;
20207;SDS011;10263;48.716;8.760;2023-08-17T00:59:47;10.45;;;6.28;;
20207;SDS011;10263;48.716;8.760;2023-08-17T01:02:14;9.18;;;6.95;;
20207;SDS011;10263;48.716;8.760;2023-08-17T01:04:40;7.40;;;5.88;;
20207;SDS011;10263;48.716;8.760;2023-08-17T01:07:07;12.57;;;6.72;;
20207;SDS011;10263;48.716;8.760;2023-08-17T01:09:34;7.53;;;6.75;;
20207;SDS011;10263;48.716;8.760;2023-08-17T01:12:03;6.63;;;5.93;;
20207;SDS011;10263;48.716;8.760;2023-08-17T01:15:00;6.05;;;5.55;;
20207;SDS011;10263;48.716;8.760;2023-08-17T01:17:37;6.70;;;6.00;;
20207;SDS011;10263;48.716;8.760;2023-08-17T01:20:10;8.07;;;5.15;;
20207;SDS011;10263;48.716;8.760;2023-08-17T01:22:39;8.80;;;6.03;;
20207;SDS011;10263;48.716;8.760;2023-08-17T01:25:09;13.73;;;6.25;;
20207;SDS011;10263;48.716;8.760;2023-08-17T01:27:36;31.23;;;6.82;;
20207;SDS011;10263;48.716;8.760;2023-08-17T01:30:05;21.13;;;5.32;;
20207;SDS011;10263;48.716;8.760;2023-08-17T01:32:34;18.02;;;4.65;;
20207;SDS011;10263;48.716;8.760;2023-08-17T01:35:07;62.80;;;7.18;;
20207;SDS011;10263;48.716;8.760;2023-08-17T01:37:40;17.73;;;4.70;;
20207;SDS011;10263;48.716;8.760;2023-08-17T01:40:10;65.55;;;7.78;;
20207;SDS011;10263;48.716;8.760;2023-08-17T01:42:39;64.82;;;8.45;;
20207;SDS011;10263;48.716;8.760;2023-08-17T01:45:08;125.60;;;11.85;;
20207;SDS011;10263;48.716;8.760;2023-08-17T01:47:36;51.53;;;8.23;;
20207;SDS011;10263;48.716;8.760;2023-08-17T01:50:03;73.25;;;9.32;;
20207;SDS011;10263;48.716;8.760;2023-08-17T01:52:31;14.90;;;5.30;;
20207;SDS011;10263;48.716;8.760;2023-08-17T01:54:58;111.78;;;9.15;;
20207;SDS011;10263;48.716;8.760;2023-08-17T01:57:26;124.80;;;9.38;;
20207;SDS011;10263;48.716;8.760;2023-08-17T01:59:53;63.17;;;8.20;;
20207;SDS011;10263;48.716;8.760;2023-08-17T02:02:20;31.65;;;6.35;;
20207;SDS011;10263;48.716;8.760;2023-08-17T02:04:48;159.50;;;11.65;;
20207;SDS011;10263;48.716;8.760;2023-08-17T02:07:15;187.07;;;13.73;;
20207;SDS011;10263;48.716;8.760;2023-08-17T02:09:42;135.77;;;11.60;;
20207;SDS011;10263;48.716;8.760;2023-08-17T02:12:09;172.05;;;13.60;;
20207;SDS011;10263;48.716;8.760;2023-08-17T02:14:37;161.50;;;11.65;;
20207;SDS011;10263;48.716;8.760;2023-08-17T02:17:04;119.50;;;9.70;;
20207;SDS011;10263;48.716;8.760;2023-08-17T02:19:31;200.65;;;12.80;;
20207;SDS011;10263;48.716;8.760;2023-08-17T02:21:58;114.70;;;10.57;;
20207;SDS011;10263;48.716;8.760;2023-08-17T02:24:25;31.67;;;6.47;;
20207;SDS011;10263;48.716;8.760;2023-08-17T02:26:52;169.00;;;12.90;;
20207;SDS011;10263;48.716;8.760;2023-08-17T02:29:19;70.35;;;7.75;;
20207;SDS011;10263;48.716;8.760;2023-08-17T02:31:47;53.90;;;7.15;;
20207;SDS011;10263;48.716;8.760;2023-08-17T02:34:14;120.10;;;10.57;;
20207;SDS011;10263;48.716;8.760;2023-08-17T02:36:41;151.18;;;11.60;;
20207;SDS011;10263;48.716;8.760;2023-08-17T02:39:08;85.32;;;8.80;;
20207;SDS011;10263;48.716;8.760;2023-08-17T02:41:34;88.25;;;9.32;;
20207;SDS011;10263;48.716;8.760;2023-08-17T02:44:01;97.60;;;8.75;;
20207;SDS011;10263;48.716;8.760;2023-08-17T02:46:29;95.43;;;9.77;;
20207;SDS011;10263;48.716;8.760;2023-08-17T02:48:57;123.45;;;8.77;;
20207;SDS011;10263;48.716;8.760;2023-08-17T02:51:23;95.07;;;11.07;;
20207;SDS011;10263;48.716;8.760;2023-08-17T02:53:50;131.40;;;11.10;;
20207;SDS011;10263;48.716;8.760;2023-08-17T02:56:17;157.63;;;12.88;;
20207;SDS011;10263;48.716;8.760;2023-08-17T02:58:44;145.68;;;12.35;;
20207;SDS011;10263;48.716;8.760;2023-08-17T03:01:11;219.38;;;14.30;;
20207;SDS011;10263;48.716;8.760;2023-08-17T03:03:38;106.28;;;9.90;;
20207;SDS011;10263;48.716;8.760;2023-08-17T03:06:06;174.82;;;13.35;;
20207;SDS011;10263;48.716;8.760;2023-08-17T03:08:33;130.77;;;11.98;;
20207;SDS011;10263;48.716;8.760;2023-08-17T03:11:00;192.40;;;16.70;;
20207;SDS011;10263;48.716;8.760;2023-08-17T03:13:27;97.28;;;10.10;;
20207;SDS011;10263;48.716;8.760;2023-08-17T03:15:54;181.02;;;13.27;;
20207;SDS011;10263;48.716;8.760;2023-08-17T03:18:21;147.60;;;12.52;;
20207;SDS011;10263;48.716;8.760;2023-08-17T03:20:47;164.85;;;12.73;;
20207;SDS011;10263;48.716;8.760;2023-08-17T03:23:16;211.10;;;16.92;;
20207;SDS011;10263;48.716;8.760;2023-08-17T03:25:43;234.73;;;20.67;;
20207;SDS011;10263;48.716;8.760;2023-08-17T03:28:10;218.40;;;17.20;;
20207;SDS011;10263;48.716;8.760;2023-08-17T03:30:38;219.18;;;17.75;;
20207;SDS011;10263;48.716;8.760;2023-08-17T03:33:04;164.80;;;15.35;;
20207;SDS011;10263;48.716;8.760;2023-08-17T03:35:31;121.82;;;12.93;;
20207;SDS011;10263;48.716;8.760;2023-08-17T03:37:58;33.25;;;7.85;;
20207;SDS011;10263;48.716;8.760;2023-08-17T03:40:27;35.53;;;8.25;;
20207;SDS011;10263;48.716;8.760;2023-08-17T03:42:54;61.65;;;10.10;;
20207;SDS011;10263;48.716;8.760;2023-08-17T03:45:21;29.00;;;8.38;;
20207;SDS011;10263;48.716;8.760;2023-08-17T03:47:49;57.30;;;10.02;;
20207;SDS011;10263;48.716;8.760;2023-08-17T03:50:16;63.15;;;10.80;;
20207;SDS011;10263;48.716;8.760;2023-08-17T03:52:43;14.32;;;8.23;;
20207;SDS011;10263;48.716;8.760;2023-08-17T03:55:10;18.27;;;8.50;;
20207;SDS011;10263;48.716;8.760;2023-08-17T03:57:38;11.75;;;8.27;;
20207;SDS011;10263;48.716;8.760;2023-08-17T04:00:06;25.27;;;9.85;;
20207;SDS011;10263;48.716;8.760;2023-08-17T04:02:41;27.73;;;10.73;;
20207;SDS011;10263;48.716;8.760;2023-08-17T04:05:11;44.47;;;10.75;;
20207;SDS011;10263;48.716;8.760;2023-08-17T04:07:38;24.98;;;10.10;;
20207;SDS011;10263;48.716;8.760;2023-08-17T04:10:05;15.15;;;9.60;;
20207;SDS011;10263;48.716;8.760;2023-08-17T04:12:33;57.03;;;11.75;;
20207;SDS011;10263;48.716;8.760;2023-08-17T04:15:01;37.72;;;10.73;;
20207;SDS011;10263;48.716;8.760;2023-08-17T04:17:29;95.53;;;14.75;;
20207;SDS011;10263;48.716;8.760;2023-08-17T04:19:56;38.05;;;10.95;;
20207;SDS011;10263;48.716;8.760;2023-08-17T04:22:23;210.88;;;22.65;;
20207;SDS011;10263;48.716;8.760;2023-08-17T04:24:50;18.83;;;10.07;;
20207;SDS011;10263;48.716;8.760;2023-08-17T04:27:17;72.70;;;13.18;;
20207;SDS011;10263;48.716;8.760;2023-08-17T04:29:44;86.97;;;13.30;;
20207;SDS011;10263;48.716;8.760;2023-08-17T04:32:15;72.25;;;13.00;;
20207;SDS011;10263;48.716;8.760;2023-08-17T04:34:42;34.83;;;8.75;;
20207;SDS011;10263;48.716;8.760;2023-08-17T04:37:09;110.00;;;14.30;;
20207;SDS011;10263;48.716;8.760;2023-08-17T04:39:36;47.33;;;11.70;;
20207;SDS011;10263;48.716;8.760;2023-08-17T04:42:03;163.35;;;18.77;;
20207;SDS011;10263;48.716;8.760;2023-08-17T04:44:32;48.97;;;10.07;;
20207;SDS011;10263;48.716;8.760;2023-08-17T04:47:00;18.38;;;9.70;;
20207;SDS011;10263;48.716;8.760;2023-08-17T04:49:28;112.05;;;13.63;;
20207;SDS011;10263;48.716;8.760;2023-08-17T04:51:55;54.67;;;10.48;;
20207;SDS011;10263;48.716;8.760;2023-08-17T04:54:22;27.45;;;11.65;;
20207;SDS011;10263;48.716;8.760;2023-08-17T04:56:49;74.60;;;12.68;;
20207;SDS011;10263;48.716;8.760;2023-08-17T04:59:16;70.32;;;11.88;;
20207;SDS011;10263;48.716;8.760;2023-08-17T05:01:43;33.75;;;10.45;;
20207;SDS011;10263;48.716;8.760;2023-08-17T05:04:10;39.92;;;11.90;;
20207;SDS011;10263;48.716;8.760;2023-08-17T05:06:38;20.05;;;10.25;;
20207;SDS011;10263;48.716;8.760;2023-08-17T05:09:05;38.92;;;11.75;;
20207;SDS011;10263;48.716;8.760;2023-08-17T05:11:33;45.90;;;11.55;;
20207;SDS011;10263;48.716;8.760;2023-08-17T05:14:00;47.45;;;13.00;;
20207;SDS011;10263;48.716;8.760;2023-08-17T05:16:28;57.00;;;12.38;;
20207;SDS011;10263;48.716;8.760;2023-08-17T05:18:55;44.47;;;11.45;;
20207;SDS011;10263;48.716;8.760;2023-08-17T05:21:24;20.33;;;10.48;;
20207;SDS011;10263;48.716;8.760;2023-08-17T05:23:52;48.13;;;11.10;;
20207;SDS011;10263;48.716;8.760;2023-08-17T05:26:19;22.92;;;10.98;;
20207;SDS011;10263;48.716;8.760;2023-08-17T05:28:46;27.33;;;11.60;;
20207;SDS011;10263;48.716;8.760;2023-08-17T05:31:13;180.52;;;16.50;;
20207;SDS011;10263;48.716;8.760;2023-08-17T05:33:44;118.30;;;14.50;;
20207;SDS011;10263;48.716;8.760;2023-08-17T05:36:12;146.43;;;15.60;;
20207;SDS011;10263;48.716;8.760;2023-08-17T05:38:39;33.97;;;10.73;;
20207;SDS011;10263;48.716;8.760;2023-08-17T05:41:07;337.50;;;25.42;;
20207;SDS011;10263;48.716;8.760;2023-08-17T05:43:34;374.42;;;28.10;;
20207;SDS011;10263;48.716;8.760;2023-08-17T05:46:01;114.38;;;14.02;;
20207;SDS011;10263;48.716;8.760;2023-08-17T05:48:29;246.45;;;19.50;;
20207;SDS011;10263;48.716;8.760;2023-08-17T05:50:56;164.13;;;15.23;;
20207;SDS011;10263;48.716;8.760;2023-08-17T05:53:22;304.38;;;20.65;;
20207;SDS011;10263;48.716;8.760;2023-08-17T05:55:49;224.95;;;18.50;;
20207;SDS011;10263;48.716;8.760;2023-08-17T05:58:17;39.97;;;8.18;;
20207;SDS011;10263;48.716;8.760;2023-08-17T06:00:44;102.80;;;12.23;;
20207;SDS011;10263;48.716;8.760;2023-08-17T06:03:11;91.40;;;11.98;;
20207;SDS011;10263;48.716;8.760;2023-08-17T06:05:38;135.68;;;13.50;;
20207;SDS011;10263;48.716;8.760;2023-08-17T06:08:05;162.75;;;13.55;;
20207;SDS011;10263;48.716;8.760;2023-08-17T06:10:32;95.28;;;10.48;;
20207;SDS011;10263;48.716;8.760;2023-08-17T06:12:59;129.95;;;12.43;;
20207;SDS011;10263;48.716;8.760;2023-08-17T06:15:27;77.05;;;10.98;;
20207;SDS011;10263;48.716;8.760;2023-08-17T06:17:54;85.22;;;11.55;;
20207;SDS011;10263;48.716;8.760;2023-08-17T06:20:22;90.30;;;10.63;;
20207;SDS011;10263;48.716;8.760;2023-08-17T06:22:48;125.70;;;12.95;;
20207;SDS011;10263;48.716;8.760;2023-08-17T06:25:15;85.40;;;10.30;;
20207;SDS011;10263;48.716;8.760;2023-08-17T06:27:42;93.53;;;12.32;;
20207;SDS011;10263;48.716;8.760;2023-08-17T06:30:09;83.10;;;10.05;;
20207;SDS011;10263;48.716;8.760;2023-08-17T06:32:39;109.90;;;10.85;;
20207;SDS011;10263;48.716;8.760;2023-08-17T06:35:06;172.55;;;13.25;;
20207;SDS011;10263;48.716;8.760;2023-08-17T06:37:33;168.57;;;14.57;;
20207;SDS011;10263;48.716;8.760;2023-08-17T06:40:01;206.93;;;16.63;;
20207;SDS011;10263;48.716;8.760;2023-08-17T06:42:28;328.83;;;23.15;;
20207;SDS011;10263;48.716;8.760;2023-08-17T06:44:55;303.30;;;23.30;;
20207;SDS011;10263;48.716;8.760;2023-08-17T06:47:22;74.38;;;9.63;;
20207;SDS011;10263;48.716;8.760;2023-08-17T06:49:50;192.18;;;17.05;;
20207;SDS011;10263;48.716;8.760;2023-08-17T06:54:51;304.00;;;24.48;;
20207;SDS011;10263;48.716;8.760;2023-08-17T06:57:18;179.30;;;15.05;;
20207;SDS011;10263;48.716;8.760;2023-08-17T06:59:46;105.35;;;11.30;;
20207;SDS011;10263;48.716;8.760;2023-08-17T07:02:13;191.63;;;16.25;;
20207;SDS011;10263;48.716;8.760;2023-08-17T07:04:40;93.53;;;9.93;;
20207;SDS011;10263;48.716;8.760;2023-08-17T07:07:08;42.65;;;8.73;;
20207;SDS011;10263;48.716;8.760;2023-08-17T07:09:35;36.83;;;8.07;;
20207;SDS011;10263;48.716;8.760;2023-08-17T07:12:02;22.13;;;6.88;;
20207;SDS011;10263;48.716;8.760;2023-08-17T07:14:29;13.75;;;6.60;;
20207;SDS011;10263;48.716;8.760;2023-08-17T07:16:56;9.73;;;6.38;;
20207;SDS011;10263;48.716;8.760;2023-08-17T07:19:23;6.90;;;6.30;;
20207;SDS011;10263;48.716;8.760;2023-08-17T07:21:49;6.05;;;5.55;;
20207;SDS011;10263;48.716;8.760;2023-08-17T07:24:18;6.07;;;4.57;;
20207;SDS011;10263;48.716;8.760;2023-08-17T07:26:44;5.15;;;4.75;;
20207;SDS011;10263;48.716;8.760;2023-08-17T07:29:11;4.22;;;3.83;;
20207;SDS011;10263;48.716;8.760;2023-08-17T07:31:38;4.20;;;3.65;;
20207;SDS011;10263;48.716;8.760;2023-08-17T07:34:05;4.05;;;3.65;;
20207;SDS011;10263;48.716;8.760;2023-08-17T07:36:33;4.90;;;4.50;;
20207;SDS011;10263;48.716;8.760;2023-08-17T07:39:02;4.93;;;3.85;;
20207;SDS011;10263;48.716;8.760;2023-08-17T07:41:31;4.53;;;4.20;;
20207;SDS011;10263;48.716;8.760;2023-08-17T07:43:57;4.82;;;4.43;;
20207;SDS011;10263;48.716;8.760;2023-08-17T07:46:24;4.20;;;3.90;;
20207;SDS011;10263;48.716;8.760;2023-08-17T07:48:51;5.05;;;4.55;;
20207;SDS011;10263;48.716;8.760;2023-08-17T07:51:18;3.75;;;3.55;;
20207;SDS011;10263;48.716;8.760;2023-08-17T07:53:45;3.60;;;3.30;;
20207;SDS011;10263;48.716;8.760;2023-08-17T07:56:12;4.22;;;3.83;;
20207;SDS011;10263;48.716;8.760;2023-08-17T07:58:40;5.53;;;3.50;;
20207;SDS011;10263;48.716;8.760;2023-08-17T08:01:07;4.15;;;3.47;;
20207;SDS011;10263;48.716;8.760;2023-08-17T08:03:34;3.97;;;3.65;;
20207;SDS011;10263;48.716;8.760;2023-08-17T08:06:01;3.75;;;3.45;;
20207;SDS011;10263;48.716;8.760;2023-08-17T08:08:28;3.63;;;3.33;;
20207;SDS011;10263;48.716;8.760;2023-08-17T08:10:54;3.22;;;2.97;;
20207;SDS011;10263;48.716;8.760;2023-08-17T08:13:21;4.25;;;3.85;;
20207;SDS011;10263;48.716;8.760;2023-08-17T08:15:49;5.05;;;3.30;;
20207;SDS011;10263;48.716;8.760;2023-08-17T08:18:17;3.97;;;3.60;;
20207;SDS011;10263;48.716;8.760;2023-08-17T08:20:43;3.50;;;2.90;;
20207;SDS011;10263;48.716;8.760;2023-08-17T08:23:11;3.33;;;3.08;;
20207;SDS011;10263;48.716;8.760;2023-08-17T08:25:37;3.22;;;2.60;;
20207;SDS011;10263;48.716;8.760;2023-08-17T08:28:04;3.95;;;3.00;;
20207;SDS011;10263;48.716;8.760;2023-08-17T08:30:31;3.03;;;2.80;;
20207;SDS011;10263;48.716;8.760;2023-08-17T08:32:59;4.18;;;2.67;;
20207;SDS011;10263;48.716;8.760;2023-08-17T08:35:26;3.72;;;3.20;;
20207;SDS011;10263;48.716;8.760;2023-08-17T08:37:54;4.43;;;2.83;;
20207;SDS011;10263;48.716;8.760;2023-08-17T08:40:26;3.13;;;2.88;;
20207;SDS011;10263;48.716;8.760;2023-08-17T08:42:54;3.50;;;2.85;;
20207;SDS011;10263;48.716;8.760;2023-08-17T08:45:22;3.10;;;2.90;;
20207;SDS011;10263;48.716;8.760;2023-08-17T08:47:50;3.30;;;3.00;;
20207;SDS011;10263;48.716;8.760;2023-08-17T08:50:20;2.65;;;2.45;;
20207;SDS011;10263;48.716;8.760;2023-08-17T08:52:49;3.33;;;2.67;;
20207;SDS011;10263;48.716;8.760;2023-08-17T08:55:21;3.03;;;2.67;;
20207;SDS011;10263;48.716;8.760;2023-08-17T08:57:49;3.63;;;3.33;;
20207;SDS011;10263;48.716;8.760;2023-08-17T09:00:17;3.05;;;2.80;;
20207;SDS011;10263;48.716;8.760;2023-08-17T09:02:45;3.00;;;2.70;;
20207;SDS011;10263;48.716;8.760;2023-08-17T09:05:12;3.08;;;2.33;;
20207;SDS011;10263;48.716;8.760;2023-08-17T09:07:42;3.47;;;3.17;;
20207;SDS011;10263;48.716;8.760;2023-08-17T09:10:09;3.00;;;2.72;;
20207;SDS011;10263;48.716;8.760;2023-08-17T09:12:36;3.40;;;2.90;;
20207;SDS011;10263;48.716;8.760;2023-08-17T09:15:05;3.33;;;2.90;;
20207;SDS011;10263;48.716;8.760;2023-08-17T09:17:33;3.03;;;2.53;;
20207;SDS011;10263;48.716;8.760;2023-08-17T09:20:00;4.30;;;2.70;;
20207;SDS011;10263;48.716;8.760;2023-08-17T09:22:36;2.90;;;2.70;;
20207;SDS011;10263;48.716;8.760;2023-08-17T09:25:06;3.05;;;2.85;;
20207;SDS011;10263;48.716;8.760;2023-08-17T09:27:34;2.60;;;2.40;;
20207;SDS011;10263;48.716;8.760;2023-08-17T09:30:02;3.25;;;2.92;;
20207;SDS011;10263;48.716;8.760;2023-08-17T09:32:31;2.90;;;2.60;;
20207;SDS011;10263;48.716;8.760;2023-08-17T09:35:00;3.03;;;2.72;;
20207;SDS011;10263;48.716;8.760;2023-08-17T09:37:27;2.67;;;2.35;;
20207;SDS011;10263;48.716;8.760;2023-08-17T09:39:54;3.00;;;2.70;;
20207;SDS011;10263;48.716;8.760;2023-08-17T09:42:23;3.03;;;2.70;;
20207;SDS011;10263;48.716;8.760;2023-08-17T09:44:50;3.08;;;2.30;;
20207;SDS011;10263;48.716;8.760;2023-08-17T09:47:18;2.90;;;2.70;;
20207;SDS011;10263;48.716;8.760;2023-08-17T09:49:48;4.20;;;2.25;;
20207;SDS011;10263;48.716;8.760;2023-08-17T09:52:15;3.25;;;2.05;;
20207;SDS011;10263;48.716;8.760;2023-08-17T09:54:42;2.78;;;2.17;;
20207;SDS011;10263;48.716;8.760;2023-08-17T09:57:09;2.75;;;2.10;;
20207;SDS011;10263;48.716;8.760;2023-08-17T09:59:37;3.22;;;2.33;;
20207;SDS011;10263;48.716;8.760;2023-08-17T10:02:04;3.33;;;2.28;;
20207;SDS011;10263;48.716;8.760;2023-08-17T10:04:42;2.97;;;2.25;;
20207;SDS011;10263;48.716;8.760;2023-08-17T10:07:10;1.88;;;1.75;;
20207;SDS011;10263;48.716;8.760;2023-08-17T10:09:39;3.20;;;2.50;;
20207;SDS011;10263;48.716;8.760;2023-08-17T10:12:12;3.03;;;2.50;;
20207;SDS011;10263;48.716;8.760;2023-08-17T10:14:45;2.75;;;2.15;;
20207;SDS011;10263;48.716;8.760;2023-08-17T10:17:21;3.50;;;2.40;;
20207;SDS011;10263;48.716;8.760;2023-08-17T10:19:52;2.65;;;2.25;;
20207;SDS011;10263;48.716;8.760;2023-08-17T10:22:23;3.30;;;2.80;;
20207;SDS011;10263;48.716;8.760;2023-08-17T10:24:54;27.80;;;10.65;;
20207;SDS011;10263;48.716;8.760;2023-08-17T10:27:23;3.05;;;2.50;;
20207;SDS011;10263;48.716;8.760;2023-08-17T10:29:52;2.80;;;2.60;;
20207;SDS011;10263;48.716;8.760;2023-08-17T10:32:20;2.88;;;2.50;;
20207;SDS011;10263;48.716;8.760;2023-08-17T10:34:48;2.78;;;2.40;;
20207;SDS011;10263;48.716;8.760;2023-08-17T10:37:16;2.90;;;2.35;;
20207;SDS011;10263;48.716;8.760;2023-08-17T10:39:44;2.55;;;2.35;;
20207;SDS011;10263;48.716;8.760;2023-08-17T10:42:12;3.67;;;2.47;;
20207;SDS011;10263;48.716;8.760;2023-08-17T10:44:43;2.60;;;2.40;;
20207;SDS011;10263;48.716;8.760;2023-08-17T10:49:55;2.85;;;2.47;;
20207;SDS011;10263;48.716;8.760;2023-08-17T10:52:26;2.90;;;2.70;;
20207;SDS011;10263;48.716;8.760;2023-08-17T10:54:54;3.38;;;2.60;;
20207;SDS011;10263;48.716;8.760;2023-08-17T10:57:28;4.50;;;3.38;;
20207;SDS011;10263;48.716;8.760;2023-08-17T11:00:15;2.90;;;2.70;;
20207;SDS011;10263;48.716;8.760;2023-08-17T11:02:57;3.50;;;3.08;;
20207;SDS011;10263;48.716;8.760;2023-08-17T11:05:38;3.17;;;2.97;;
20207;SDS011;10263;48.716;8.760;2023-08-17T11:08:06;3.50;;;3.20;;
20207;SDS011;10263;48.716;8.760;2023-08-17T11:10:34;3.33;;;2.80;;
20207;SDS011;10263;48.716;8.760;2023-08-17T11:13:03;3.45;;;3.15;;
20207;SDS011;10263;48.716;8.760;2023-08-17T11:15:35;2.88;;;2.67;;
20207;SDS011;10263;48.716;8.760;2023-08-17T11:18:09;3.28;;;2.70;;
20207;SDS011;10263;48.716;8.760;2023-08-17T11:20:37;3.20;;;2.90;;
20207;SDS011;10263;48.716;8.760;2023-08-17T11:23:05;3.00;;;2.80;;
20207;SDS011;10263;48.716;8.760;2023-08-17T11:25:33;3.80;;;3.50;;
20207;SDS011;10263;48.716;8.760;2023-08-17T11:28:00;3.67;;;3.33;;
20207;SDS011;10263;48.716;8.760;2023-08-17T11:30:27;6.78;;;3.53;;
20207;SDS011;10263;48.716;8.760;2023-08-17T11:32:55;4.80;;;3.00;;
20207;SDS011;10263;48.716;8.760;2023-08-17T11:35:23;3.65;;;3.40;;
20207;SDS011;10263;48.716;8.760;2023-08-17T11:37:51;2.72;;;2.50;;
20207;SDS011;10263;48.716;8.760;2023-08-17T11:40:18;3.00;;;2.70;;
20207;SDS011;10263;48.716;8.760;2023-08-17T11:42:45;3.28;;;2.97;;
20207;SDS011;10263;48.716;8.760;2023-08-17T11:45:12;3.28;;;2.97;;
20207;SDS011;10263;48.716;8.760;2023-08-17T11:47:40;2.70;;;2.50;;
20207;SDS011;10263;48.716;8.760;2023-08-17T11:50:08;3.33;;;2.90;;
20207;SDS011;10263;48.716;8.760;2023-08-17T11:52:38;3.15;;;2.95;;
20207;SDS011;10263;48.716;8.760;2023-08-17T11:55:05;3.28;;;3.00;;
20207;SDS011;10263;48.716;8.760;2023-08-17T11:57:33;2.83;;;2.63;;
20207;SDS011;10263;48.716;8.760;2023-08-17T12:00:01;6.63;;;3.03;;
20207;SDS011;10263;48.716;8.760;2023-08-17T12:02:31;4.75;;;3.10;;
20207;SDS011;10263;48.716;8.760;2023-08-17T12:05:03;3.88;;;2.70;;
20207;SDS011;10263;48.716;8.760;2023-08-17T12:07:32;2.90;;;2.70;;
20207;SDS011;10263;48.716;8.760;2023-08-17T12:09:59;3.35;;;3.15;;
20207;SDS011;10263;48.716;8.760;2023-08-17T12:12:28;3.65;;;2.53;;
20207;SDS011;10263;48.716;8.760;2023-08-17T12:14:55;5.72;;;3.03;;
20207;SDS011;10263;48.716;8.760;2023-08-17T12:17:23;3.60;;;2.80;;
20207;SDS011;10263;48.716;8.760;2023-08-17T12:19:53;9.70;;;3.83;;
20207;SDS011;10263;48.716;8.760;2023-08-17T12:22:23;6.82;;;3.22;;
20207;SDS011;10263;48.716;8.760;2023-08-17T12:24:51;10.98;;;3.65;;
20207;SDS011;10263;48.716;8.760;2023-08-17T12:27:19;17.15;;;4.20;;
20207;SDS011;10263;48.716;8.760;2023-08-17T12:29:48;4.45;;;3.00;;
20207;SDS011;10263;48.716;8.760;2023-08-17T12:32:16;5.47;;;3.15;;
20207;SDS011;10263;48.716;8.760;2023-08-17T12:34:44;3.85;;;2.65;;
20207;SDS011;10263;48.716;8.760;2023-08-17T12:37:11;5.75;;;2.97;;
20207;SDS011;10263;48.716;8.760;2023-08-17T12:39:44;3.20;;;2.65;;
20207;SDS011;10263;48.716;8.760;2023-08-17T12:42:11;3.38;;;3.00;;
20207;SDS011;10263;48.716;8.760;2023-08-17T12:44:40;3.40;;;2.72;;
20207;SDS011;10263;48.716;8.760;2023-08-17T12:47:07;6.15;;;3.78;;
20207;SDS011;10263;48.716;8.760;2023-08-17T12:49:35;5.07;;;3.47;;
20207;SDS011;10263;48.716;8.760;2023-08-17T12:54:36;4.80;;;3.10;;
20207;SDS011;10263;48.716;8.760;2023-08-17T12:57:03;7.78;;;3.80;;
20207;SDS011;10263;48.716;8.760;2023-08-17T12:59:30;4.50;;;3.45;;
20207;SDS011;10263;48.716;8.760;2023-08-17T13:01:59;4.68;;;3.63;;
20207;SDS011;10263;48.716;8.760;2023-08-17T13:04:25;7.47;;;3.63;;
20207;SDS011;10263;48.716;8.760;2023-08-17T13:06:52;5.80;;;3.95;;
20207;SDS011;10263;48.716;8.760;2023-08-17T13:09:20;5.72;;;3.65;;
20207;SDS011;10263;48.716;8.760;2023-08-17T13:11:47;8.10;;;4.43;;
20207;SDS011;10263;48.716;8.760;2023-08-17T13:14:14;6.47;;;4.45;;
20207;SDS011;10263;48.716;8.760;2023-08-17T13:16:41;6.88;;;4.32;;
20207;SDS011;10263;48.716;8.760;2023-08-17T13:19:10;7.53;;;4.50;;
20207;SDS011;10263;48.716;8.760;2023-08-17T13:21:36;5.53;;;4.05;;
20207;SDS011;10263;48.716;8.760;2023-08-17T13:24:03;5.38;;;4.60;;
20207;SDS011;10263;48.716;8.760;2023-08-17T13:26:31;5.07;;;4.60;;
20207;SDS011;10263;48.716;8.760;2023-08-17T13:28:58;6.78;;;5.15;;
20207;SDS011;10263;48.716;8.760;2023-08-17T13:31:25;6.47;;;5.75;;
20207;SDS011;10263;48.716;8.760;2023-08-17T13:33:52;6.15;;;5.55;;
20207;SDS011;10263;48.716;8.760;2023-08-17T13:36:20;5.35;;;4.88;;
20207;SDS011;10263;48.716;8.760;2023-08-17T13:38:47;6.05;;;5.13;;
20207;SDS011;10263;48.716;8.760;2023-08-17T13:41:13;6.85;;;5.25;;
20207;SDS011;10263;48.716;8.760;2023-08-17T13:43:40;5.97;;;5.15;;
20207;SDS011;10263;48.716;8.760;2023-08-17T13:46:07;5.40;;;4.90;;
20207;SDS011;10263;48.716;8.760;2023-08-17T13:48:34;6.30;;;5.78;;
20207;SDS011;10263;48.716;8.760;2023-08-17T13:51:03;6.63;;;5.78;;
20207;SDS011;10263;48.716;8.760;2023-08-17T13:53:31;5.40;;;4.95;;
20207;SDS011;10263;48.716;8.760;2023-08-17T13:55:58;6.15;;;5.38;;
20207;SDS011;10263;48.716;8.760;2023-08-17T13:58:25;7.18;;;6.28;;
20207;SDS011;10263;48.716;8.760;2023-08-17T14:00:52;6.53;;;5.93;;
20207;SDS011;10263;48.716;8.760;2023-08-17T14:03:19;6.55;;;5.95;;
20207;SDS011;10263;48.716;8.760;2023-08-17T14:05:45;6.43;;;5.70;;
20207;SDS011;10263;48.716;8.760;2023-08-17T14:08:12;6.80;;;6.00;;
20207;SDS011;10263;48.716;8.760;2023-08-17T14:10:40;7.07;;;6.47;;
20207;SDS011;10263;48.716;8.760;2023-08-17T14:13:07;7.25;;;6.65;;
20207;SDS011;10263;48.716;8.760;2023-08-17T14:15:34;7.93;;;7.22;;
20207;SDS011;10263;48.716;8.760;2023-08-17T14:18:01;7.45;;;6.75;;
20207;SDS011;10263;48.716;8.760;2023-08-17T14:20:28;7.47;;;6.88;;
20207;SDS011;10263;48.716;8.760;2023-08-17T14:22:55;8.05;;;6.15;;
20207;SDS011;10263;48.716;8.760;2023-08-17T14:25:22;5.82;;;5.32;;
20207;SDS011;10263;48.716;8.760;2023-08-17T14:27:50;6.07;;;5.57;;
20207;SDS011;10263;48.716;8.760;2023-08-17T14:30:17;5.50;;;4.93;;
20207;SDS011;10263;48.716;8.760;2023-08-17T14:32:44;5.78;;;5.10;;
20207;SDS011;10263;48.716;8.760;2023-08-17T14:35:10;4.88;;;4.47;;
20207;SDS011;10263;48.716;8.760;2023-08-17T14:37:37;7.57;;;5.15;;
20207;SDS011;10263;48.716;8.760;2023-08-17T14:40:05;5.05;;;4.53;;
20207;SDS011;10263;48.716;8.760;2023-08-17T14:42:32;7.50;;;4.90;;
20207;SDS011;10263;48.716;8.760;2023-08-17T14:45:00;5.05;;;4.65;;
20207;SDS011;10263;48.716;8.760;2023-08-17T14:47:27;4.95;;;4.50;;